This is the latest recevied weather packets stored in our database for station/object KC7KGF. If no packets are shown the sender has not sent any weather packets the latest 10 day(s).
| Time | Temp. | Humidity | Pressure | Rain* | Wind** | Luminosity | Snow |
|---|---|---|---|---|---|---|---|
| 1777367135 | -1.11° C | 65% | 1019.1 hPa | 0 mm | - | - | - |
| 1777365333 | -0.56° C | 63% | 1019 hPa | 0 mm | - | - | - |
| 1777363540 | 0° C | 60% | 1019.2 hPa | 0 mm | - | - | - |
| 1777361735 | 0.56° C | 57% | 1019.4 hPa | 0 mm | - | - | - |
| 1777359939 | 1.67° C | 54% | 1019.4 hPa | 0 mm | - | - | - |
| 1777358134 | 2.78° C | 52% | 1019.2 hPa | 0 mm | - | - | - |
| 1777356328 | 2.78° C | 53% | 1019 hPa | 0 mm | - | - | - |
| 1777354541 | 2.78° C | 51% | 1018.9 hPa | 0 mm | - | - | - |
| 1777352725 | 3.33° C | 49% | 1018.9 hPa | 0 mm | - | - | - |
| 1777350933 | 4.44° C | 46% | 1018.7 hPa | 0 mm | - | - | - |
| 1777349137 | 5.56° C | 42% | 1018.4 hPa | 0 mm | - | - | - |
| 1777347327 | 7.22° C | 39% | 1017.9 hPa | 0 mm | - | - | - |
| 1777345531 | 9.44° C | 34% | 1017.5 hPa | 0 mm | - | - | - |
| 1777343743 | 11.67° C | 30% | 1017.2 hPa | 0 mm | - | - | - |
| 1777341927 | 13.33° C | 27% | 1017 hPa | 0 mm | - | - | - |
| 1777340139 | 13.89° C | 24% | 1016.9 hPa | 0 mm | - | - | - |
| 1777338343 | 15.56° C | 23% | 1016.8 hPa | 0 mm | - | - | - |
| 1777336532 | 16.11° C | 21% | 1016.7 hPa | 0 mm | - | - | - |
| 1777334736 | 17.22° C | 21% | 1016.6 hPa | 0 mm | - | - | - |
| 1777332938 | 17.78° C | 20% | 1016.2 hPa | 0 mm | - | - | - |
| 1777331142 | 17.78° C | 17% | 1016.2 hPa | 0 mm | - | - | - |
| 1777329340 | 18.33° C | 19% | 1016.2 hPa | 0 mm | - | - | - |
| 1777327547 | 18.33° C | 18% | 1016.2 hPa | 0 mm | - | - | - |
| 1777325748 | 18.33° C | 20% | 1016.6 hPa | 0 mm | - | - | - |
| 1777323940 | 18.33° C | 23% | 1016.8 hPa | 0 mm | - | - | - |
* Rain latest hour (hover to see other rain measurements)
** Current wind speed in m/s (hover to see current wind gust speed)